»·PEaware :: BAW1307 KOXR-KRNM

BAW1307 :: KOXR-KRNM

FLIGHT INFORMATION

Flight Status: Arrived
Operator:
British Airways
More flights by this operator :: More flights under this callsign
Pilot: Anders Stemland (12537)
Aircraft: BEECH AIRCRAFT BEECH AIRLINER
(B190)
More flights by this aircraft type
Origin: KOXR Oxnard
United States
Destination: KRNM Ramona
United States
More flights between these airports :: More routes between these airports
Route: VTU V208 SXC V208 JLI
File this flight plan on PilotEdge
Remarks: tec route VTUN31
Altitude:
(Current/Filed)
9,000ft
Speed:
(Current/Filed)
290kts
Departed: 04-Jan-17 08:34 AM
Arrived: 04-Jan-17 09:24 AM
Distance/Time
Traveled:
134nm/0:50
Distance/Time
To Go:
Arrived

Flight Plot

Page will automatically refresh every two minutes.


Map Options




Map Legend


Flown Route
Filed Route
Departure Airport
Arrival Airport
Navaid (VOR, NDB)
Fix

Horizontal Profiles

Position Reports

Time Latitude Longitude Heading Altitude Ground
Speed
04-Jan-17 08:19 34.199249 -119.202993 184 47ft 0kts
04-Jan-17 08:20 34.199249 -119.202993 184 47ft 0kts
04-Jan-17 08:21 34.199249 -119.202993 184 47ft 0kts
04-Jan-17 08:22 34.199249 -119.202993 184 47ft 0kts
04-Jan-17 08:23 34.199249 -119.202993 184 47ft 0kts
04-Jan-17 08:24 34.199249 -119.202993 184 47ft 0kts
04-Jan-17 08:25 34.199249 -119.202993 184 47ft 0kts
04-Jan-17 08:26 34.199249 -119.202993 184 47ft 0kts
04-Jan-17 08:27 34.199249 -119.202993 184 47ft 0kts
04-Jan-17 08:28 34.199249 -119.202993 184 47ft 0kts
04-Jan-17 08:29 34.199245 -119.202993 184 47ft 0kts
04-Jan-17 08:30 34.199231 -119.202994 181 47ft 1kts
04-Jan-17 08:31 34.199646 -119.201225 91 47ft 24kts
04-Jan-17 08:32 34.200060 -119.197627 354 47ft 0kts
04-Jan-17 08:33 34.200653 -119.197745 322 47ft 9kts
04-Jan-17 08:34 34.199415 -119.223543 259 537ft 155kts
04-Jan-17 08:35 34.197238 -119.281057 268 2635ft 188kts
04-Jan-17 08:36 34.196189 -119.344855 268 4420ft 191kts
04-Jan-17 08:37 34.196069 -119.405516 267 6062ft 203kts
04-Jan-17 08:38 34.161436 -119.427094 143 7876ft 171kts
04-Jan-17 08:39 34.120654 -119.383030 140 7992ft 215kts
04-Jan-17 08:40 34.075635 -119.332702 142 7997ft 226kts
04-Jan-17 08:41 34.029424 -119.280775 142 8000ft 237kts
04-Jan-17 08:42 33.980198 -119.225532 142 8001ft 246kts
04-Jan-17 08:43 33.929853 -119.169603 142 7999ft 247kts
04-Jan-17 08:44 33.878985 -119.112993 142 7999ft 247kts
04-Jan-17 08:45 33.828470 -119.056964 142 8000ft 247kts
04-Jan-17 08:46 33.778559 -118.999868 135 8001ft 250kts
04-Jan-17 08:47 33.733525 -118.935966 133 7999ft 250kts
04-Jan-17 08:48 33.688946 -118.871921 133 8000ft 250kts
04-Jan-17 08:49 33.644177 -118.807588 133 8001ft 250kts
04-Jan-17 08:50 33.599961 -118.743220 133 7998ft 250kts
04-Jan-17 08:51 33.555713 -118.679069 132 8001ft 250kts
04-Jan-17 08:52 33.514651 -118.619577 133 8989ft 230kts
04-Jan-17 08:53 33.471605 -118.558289 133 9001ft 244kts
04-Jan-17 08:54 33.429019 -118.497207 133 9000ft 245kts
04-Jan-17 08:55 33.385111 -118.434349 133 9001ft 245kts
04-Jan-17 08:56 33.364238 -118.357971 97 9003ft 252kts
04-Jan-17 08:57 33.356567 -118.278403 99 9003ft 252kts
04-Jan-17 08:58 33.345468 -118.195670 100 9001ft 252kts
04-Jan-17 08:59 33.334167 -118.112845 100 8988ft 252kts
04-Jan-17 09:00 33.323196 -118.030158 100 8990ft 252kts
04-Jan-17 09:01 33.312437 -117.948367 99 8986ft 252kts
04-Jan-17 09:02 33.301501 -117.865647 100 8994ft 252kts
04-Jan-17 09:03 33.290448 -117.782557 100 9005ft 253kts
04-Jan-17 09:04 33.278783 -117.699465 101 9005ft 253kts
04-Jan-17 09:05 33.266202 -117.617748 101 8998ft 253kts
04-Jan-17 09:06 33.254662 -117.534293 98 8998ft 253kts
04-Jan-17 09:07 33.244668 -117.450809 99 9001ft 253kts
04-Jan-17 09:08 33.234929 -117.367402 98 8708ft 263kts
04-Jan-17 09:09 33.224794 -117.281471 98 7136ft 242kts
04-Jan-17 09:10 33.216050 -117.209916 97 6975ft 201kts
04-Jan-17 09:11 33.208415 -117.145408 98 6971ft 190kts
04-Jan-17 09:12 33.201710 -117.088927 98 6977ft 180kts
04-Jan-17 09:13 33.196239 -117.047110 107 6979ft 178kts
04-Jan-17 09:14 33.176521 -116.997109 119 6985ft 175kts
04-Jan-17 09:15 33.153447 -116.946699 121 6980ft 174kts
04-Jan-17 09:16 33.132117 -116.898599 101 7008ft 171kts
04-Jan-17 09:17 33.126231 -116.845686 96 6983ft 181kts
04-Jan-17 09:18 33.120497 -116.793379 97 5839ft 148kts
04-Jan-17 09:19 33.097817 -116.765561 187 4506ft 129kts
04-Jan-17 09:20 33.062339 -116.771996 188 3825ft 138kts
04-Jan-17 09:21 33.034551 -116.793380 245 3222ft 121kts
04-Jan-17 09:22 33.028705 -116.834764 271 2871ft 132kts
04-Jan-17 09:23 33.033552 -116.877047 279 1980ft 130kts
04-Jan-17 09:24 33.038892 -116.913614 279 1397ft 28kts
04-Jan-17 09:25 33.039641 -116.915360 333 1397ft 0kts
04-Jan-17 09:26 33.039425 -116.912838 100 1397ft 22kts
04-Jan-17 09:27 33.040246 -116.911475 7 1397ft 0kts
04-Jan-17 09:28 33.040246 -116.911475 7 1397ft 0kts
04-Jan-17 09:29 33.040246 -116.911475 7 1397ft 0kts
04-Jan-17 09:30 33.040246 -116.911475 7 1397ft 0kts
04-Jan-17 09:31 33.040246 -116.911475 7 1397ft 0kts

Navigation Log

Ident Type
1. KOXR Airport
2. VTU Navaid
3. WEEZL Fix
4. SXC Navaid
5. AVOLS Fix
6. PACIF Fix
7. HUBRD Fix
8. OCN Navaid
9. VISTA Fix
10. ROBNN Fix
11. BONDO Fix
12. JLI Navaid
13. KRNM Airport